sensor_id;sensor_type;location;lat;lon;timestamp;P1;durP1;ratioP1;P2;durP2;ratioP2
49828;SDS011;35723;51.194;5.112;2023-05-16T00:01:22;21.13;;;3.60;;
49828;SDS011;35723;51.194;5.112;2023-05-16T00:03:48;24.90;;;4.07;;
49828;SDS011;35723;51.194;5.112;2023-05-16T00:39:29;24.45;;;3.25;;
49828;SDS011;35723;51.194;5.112;2023-05-16T00:41:55;24.63;;;3.75;;
49828;SDS011;35723;51.194;5.112;2023-05-16T00:49:32;22.00;;;3.20;;
49828;SDS011;35723;51.194;5.112;2023-05-16T00:51:58;24.88;;;3.35;;
49828;SDS011;35723;51.194;5.112;2023-05-16T00:54:25;18.80;;;3.05;;
49828;SDS011;35723;51.194;5.112;2023-05-16T00:56:53;22.92;;;3.42;;
49828;SDS011;35723;51.194;5.112;2023-05-16T00:59:20;24.73;;;3.40;;
49828;SDS011;35723;51.194;5.112;2023-05-16T01:01:46;20.25;;;3.50;;
49828;SDS011;35723;51.194;5.112;2023-05-16T01:04:13;20.17;;;3.17;;
49828;SDS011;35723;51.194;5.112;2023-05-16T01:06:38;21.67;;;3.38;;
49828;SDS011;35723;51.194;5.112;2023-05-16T01:09:05;23.13;;;3.10;;
49828;SDS011;35723;51.194;5.112;2023-05-16T01:11:37;19.50;;;3.22;;
49828;SDS011;35723;51.194;5.112;2023-05-16T01:14:28;21.90;;;3.40;;
49828;SDS011;35723;51.194;5.112;2023-05-16T01:17:30;20.60;;;3.10;;
49828;SDS011;35723;51.194;5.112;2023-05-16T01:20:12;20.63;;;3.35;;
49828;SDS011;35723;51.194;5.112;2023-05-16T01:23:16;24.38;;;3.65;;
49828;SDS011;35723;51.194;5.112;2023-05-16T01:26:14;24.67;;;3.40;;
49828;SDS011;35723;51.194;5.112;2023-05-16T01:28:45;26.60;;;4.00;;
49828;SDS011;35723;51.194;5.112;2023-05-16T01:31:11;16.23;;;2.80;;
49828;SDS011;35723;51.194;5.112;2023-05-16T01:33:36;26.98;;;3.47;;
49828;SDS011;35723;51.194;5.112;2023-05-16T01:36:08;20.05;;;2.97;;
49828;SDS011;35723;51.194;5.112;2023-05-16T01:41:26;23.35;;;3.20;;
49828;SDS011;35723;51.194;5.112;2023-05-16T01:44:23;27.05;;;3.72;;
49828;SDS011;35723;51.194;5.112;2023-05-16T01:46:55;19.95;;;3.05;;
49828;SDS011;35723;51.194;5.112;2023-05-16T01:51:57;24.02;;;3.25;;
49828;SDS011;35723;51.194;5.112;2023-05-16T01:54:28;23.98;;;2.97;;
49828;SDS011;35723;51.194;5.112;2023-05-16T01:56:56;24.85;;;3.20;;
49828;SDS011;35723;51.194;5.112;2023-05-16T01:59:23;27.42;;;3.13;;
49828;SDS011;35723;51.194;5.112;2023-05-16T02:01:51;20.67;;;3.03;;
49828;SDS011;35723;51.194;5.112;2023-05-16T02:04:18;20.90;;;3.00;;
49828;SDS011;35723;51.194;5.112;2023-05-16T02:06:43;25.50;;;3.03;;
49828;SDS011;35723;51.194;5.112;2023-05-16T02:09:09;21.15;;;2.70;;
49828;SDS011;35723;51.194;5.112;2023-05-16T02:11:35;21.45;;;3.40;;
49828;SDS011;35723;51.194;5.112;2023-05-16T02:14:01;20.38;;;3.55;;
49828;SDS011;35723;51.194;5.112;2023-05-16T02:16:28;20.55;;;3.55;;
49828;SDS011;35723;51.194;5.112;2023-05-16T02:18:54;29.55;;;3.70;;
49828;SDS011;35723;51.194;5.112;2023-05-16T02:21:20;22.38;;;3.60;;
49828;SDS011;35723;51.194;5.112;2023-05-16T02:23:46;19.50;;;3.13;;
49828;SDS011;35723;51.194;5.112;2023-05-16T02:26:11;35.60;;;3.70;;
49828;SDS011;35723;51.194;5.112;2023-05-16T02:28:37;18.77;;;2.90;;
49828;SDS011;35723;51.194;5.112;2023-05-16T02:31:03;21.40;;;2.90;;
49828;SDS011;35723;51.194;5.112;2023-05-16T02:33:28;20.63;;;3.20;;
49828;SDS011;35723;51.194;5.112;2023-05-16T02:35:54;21.15;;;3.22;;
49828;SDS011;35723;51.194;5.112;2023-05-16T02:38:20;23.73;;;3.13;;
49828;SDS011;35723;51.194;5.112;2023-05-16T02:40:46;27.13;;;2.97;;
49828;SDS011;35723;51.194;5.112;2023-05-16T02:43:12;22.25;;;2.80;;
49828;SDS011;35723;51.194;5.112;2023-05-16T02:45:38;21.83;;;2.92;;
49828;SDS011;35723;51.194;5.112;2023-05-16T02:48:04;21.90;;;3.30;;
49828;SDS011;35723;51.194;5.112;2023-05-16T02:50:30;22.85;;;2.90;;
49828;SDS011;35723;51.194;5.112;2023-05-16T02:52:56;16.95;;;3.15;;
49828;SDS011;35723;51.194;5.112;2023-05-16T02:55:24;20.98;;;3.10;;
49828;SDS011;35723;51.194;5.112;2023-05-16T02:57:50;20.42;;;3.10;;
49828;SDS011;35723;51.194;5.112;2023-05-16T03:00:16;20.05;;;2.90;;
49828;SDS011;35723;51.194;5.112;2023-05-16T03:02:42;20.08;;;2.90;;
49828;SDS011;35723;51.194;5.112;2023-05-16T03:05:09;17.48;;;3.13;;
49828;SDS011;35723;51.194;5.112;2023-05-16T03:07:35;24.75;;;3.97;;
49828;SDS011;35723;51.194;5.112;2023-05-16T03:10:01;24.70;;;3.88;;
49828;SDS011;35723;51.194;5.112;2023-05-16T03:12:27;22.13;;;3.75;;
49828;SDS011;35723;51.194;5.112;2023-05-16T03:14:53;19.63;;;3.58;;
49828;SDS011;35723;51.194;5.112;2023-05-16T03:17:18;24.90;;;3.38;;
49828;SDS011;35723;51.194;5.112;2023-05-16T03:19:44;19.73;;;3.28;;
49828;SDS011;35723;51.194;5.112;2023-05-16T03:22:10;22.70;;;3.28;;
49828;SDS011;35723;51.194;5.112;2023-05-16T03:24:36;24.17;;;3.30;;
49828;SDS011;35723;51.194;5.112;2023-05-16T03:27:01;17.55;;;2.78;;
49828;SDS011;35723;51.194;5.112;2023-05-16T03:29:28;24.05;;;3.78;;
49828;SDS011;35723;51.194;5.112;2023-05-16T03:31:54;16.30;;;3.20;;
49828;SDS011;35723;51.194;5.112;2023-05-16T03:34:20;21.35;;;2.88;;
49828;SDS011;35723;51.194;5.112;2023-05-16T03:36:47;21.98;;;3.67;;
49828;SDS011;35723;51.194;5.112;2023-05-16T03:39:13;25.60;;;3.30;;
49828;SDS011;35723;51.194;5.112;2023-05-16T03:41:40;19.25;;;3.53;;
49828;SDS011;35723;51.194;5.112;2023-05-16T03:44:05;20.60;;;3.35;;
49828;SDS011;35723;51.194;5.112;2023-05-16T03:46:31;23.98;;;3.90;;
49828;SDS011;35723;51.194;5.112;2023-05-16T03:48:56;20.73;;;4.00;;
49828;SDS011;35723;51.194;5.112;2023-05-16T03:51:22;21.10;;;3.55;;
49828;SDS011;35723;51.194;5.112;2023-05-16T03:53:48;30.50;;;3.95;;
49828;SDS011;35723;51.194;5.112;2023-05-16T03:56:14;20.30;;;3.10;;
49828;SDS011;35723;51.194;5.112;2023-05-16T03:58:40;22.80;;;3.38;;
49828;SDS011;35723;51.194;5.112;2023-05-16T04:01:05;24.70;;;3.33;;
49828;SDS011;35723;51.194;5.112;2023-05-16T04:03:31;24.33;;;3.80;;
49828;SDS011;35723;51.194;5.112;2023-05-16T04:05:58;22.50;;;4.03;;
49828;SDS011;35723;51.194;5.112;2023-05-16T04:08:24;22.17;;;3.50;;
49828;SDS011;35723;51.194;5.112;2023-05-16T04:16:09;22.33;;;4.03;;
49828;SDS011;35723;51.194;5.112;2023-05-16T04:18:35;18.00;;;3.72;;
49828;SDS011;35723;51.194;5.112;2023-05-16T04:21:01;19.95;;;3.22;;
49828;SDS011;35723;51.194;5.112;2023-05-16T04:23:27;22.88;;;3.80;;
49828;SDS011;35723;51.194;5.112;2023-05-16T04:25:53;22.35;;;3.28;;
49828;SDS011;35723;51.194;5.112;2023-05-16T04:28:21;26.13;;;3.20;;
49828;SDS011;35723;51.194;5.112;2023-05-16T04:30:47;19.30;;;3.10;;
49828;SDS011;35723;51.194;5.112;2023-05-16T04:33:13;19.90;;;3.22;;
49828;SDS011;35723;51.194;5.112;2023-05-16T04:35:38;18.10;;;3.53;;
49828;SDS011;35723;51.194;5.112;2023-05-16T04:38:04;26.70;;;3.65;;
49828;SDS011;35723;51.194;5.112;2023-05-16T04:40:30;22.85;;;3.42;;
49828;SDS011;35723;51.194;5.112;2023-05-16T04:42:56;25.30;;;3.97;;
49828;SDS011;35723;51.194;5.112;2023-05-16T04:45:21;21.90;;;3.28;;
49828;SDS011;35723;51.194;5.112;2023-05-16T04:47:47;19.98;;;3.58;;
49828;SDS011;35723;51.194;5.112;2023-05-16T04:50:13;21.98;;;3.83;;
49828;SDS011;35723;51.194;5.112;2023-05-16T04:52:40;20.10;;;3.42;;
49828;SDS011;35723;51.194;5.112;2023-05-16T04:55:05;23.83;;;4.28;;
49828;SDS011;35723;51.194;5.112;2023-05-16T04:57:31;25.33;;;4.28;;
49828;SDS011;35723;51.194;5.112;2023-05-16T04:59:57;26.90;;;4.28;;
49828;SDS011;35723;51.194;5.112;2023-05-16T05:02:23;19.05;;;3.63;;
49828;SDS011;35723;51.194;5.112;2023-05-16T05:04:48;20.58;;;3.70;;
49828;SDS011;35723;51.194;5.112;2023-05-16T05:07:14;20.63;;;3.65;;
49828;SDS011;35723;51.194;5.112;2023-05-16T05:09:40;21.70;;;4.03;;
49828;SDS011;35723;51.194;5.112;2023-05-16T05:12:07;21.27;;;4.10;;
49828;SDS011;35723;51.194;5.112;2023-05-16T05:14:33;21.05;;;3.83;;
49828;SDS011;35723;51.194;5.112;2023-05-16T05:16:58;21.63;;;3.53;;
49828;SDS011;35723;51.194;5.112;2023-05-16T05:19:24;23.33;;;3.40;;
49828;SDS011;35723;51.194;5.112;2023-05-16T05:21:50;25.95;;;3.47;;
49828;SDS011;35723;51.194;5.112;2023-05-16T05:24:15;23.17;;;3.70;;
49828;SDS011;35723;51.194;5.112;2023-05-16T05:26:41;23.83;;;3.80;;
49828;SDS011;35723;51.194;5.112;2023-05-16T05:29:07;22.75;;;3.78;;
49828;SDS011;35723;51.194;5.112;2023-05-16T05:31:32;24.30;;;4.00;;
49828;SDS011;35723;51.194;5.112;2023-05-16T05:33:58;23.50;;;3.78;;
49828;SDS011;35723;51.194;5.112;2023-05-16T05:36:24;19.67;;;4.22;;
49828;SDS011;35723;51.194;5.112;2023-05-16T05:38:50;26.75;;;3.67;;
49828;SDS011;35723;51.194;5.112;2023-05-16T05:41:16;22.15;;;3.17;;
49828;SDS011;35723;51.194;5.112;2023-05-16T05:43:41;20.50;;;3.65;;
49828;SDS011;35723;51.194;5.112;2023-05-16T05:46:07;26.83;;;4.05;;
49828;SDS011;35723;51.194;5.112;2023-05-16T05:48:33;22.73;;;3.35;;
49828;SDS011;35723;51.194;5.112;2023-05-16T05:50:59;18.17;;;2.88;;
49828;SDS011;35723;51.194;5.112;2023-05-16T05:53:24;19.02;;;3.58;;
49828;SDS011;35723;51.194;5.112;2023-05-16T05:55:50;19.38;;;3.85;;
49828;SDS011;35723;51.194;5.112;2023-05-16T05:58:16;20.90;;;3.60;;
49828;SDS011;35723;51.194;5.112;2023-05-16T06:00:42;19.05;;;3.22;;
49828;SDS011;35723;51.194;5.112;2023-05-16T06:03:07;19.77;;;3.05;;
49828;SDS011;35723;51.194;5.112;2023-05-16T06:05:33;16.92;;;3.20;;
49828;SDS011;35723;51.194;5.112;2023-05-16T06:07:59;18.75;;;3.03;;
49828;SDS011;35723;51.194;5.112;2023-05-16T06:10:25;21.48;;;3.17;;
49828;SDS011;35723;51.194;5.112;2023-05-16T06:12:51;18.10;;;2.65;;
49828;SDS011;35723;51.194;5.112;2023-05-16T06:15:16;19.88;;;2.88;;
49828;SDS011;35723;51.194;5.112;2023-05-16T06:17:42;17.23;;;2.88;;
49828;SDS011;35723;51.194;5.112;2023-05-16T06:20:07;22.63;;;3.05;;
49828;SDS011;35723;51.194;5.112;2023-05-16T06:22:33;17.02;;;2.90;;
49828;SDS011;35723;51.194;5.112;2023-05-16T06:24:59;17.27;;;2.83;;
49828;SDS011;35723;51.194;5.112;2023-05-16T06:27:25;16.00;;;2.80;;
49828;SDS011;35723;51.194;5.112;2023-05-16T06:29:50;22.70;;;3.67;;
49828;SDS011;35723;51.194;5.112;2023-05-16T06:32:16;19.80;;;3.35;;
49828;SDS011;35723;51.194;5.112;2023-05-16T06:34:42;17.30;;;3.10;;
49828;SDS011;35723;51.194;5.112;2023-05-16T06:37:07;15.23;;;2.53;;
49828;SDS011;35723;51.194;5.112;2023-05-16T06:39:33;13.45;;;3.03;;
49828;SDS011;35723;51.194;5.112;2023-05-16T06:41:58;18.80;;;2.97;;
49828;SDS011;35723;51.194;5.112;2023-05-16T06:44:24;24.80;;;3.40;;
49828;SDS011;35723;51.194;5.112;2023-05-16T06:46:51;18.30;;;2.78;;
49828;SDS011;35723;51.194;5.112;2023-05-16T06:49:16;17.10;;;3.05;;
49828;SDS011;35723;51.194;5.112;2023-05-16T06:51:42;21.65;;;2.88;;
49828;SDS011;35723;51.194;5.112;2023-05-16T06:54:08;20.75;;;3.33;;
49828;SDS011;35723;51.194;5.112;2023-05-16T06:56:33;16.58;;;3.20;;
49828;SDS011;35723;51.194;5.112;2023-05-16T06:58:59;18.08;;;2.47;;
49828;SDS011;35723;51.194;5.112;2023-05-16T07:01:25;16.15;;;2.50;;
49828;SDS011;35723;51.194;5.112;2023-05-16T07:03:51;16.17;;;2.85;;
49828;SDS011;35723;51.194;5.112;2023-05-16T07:06:17;19.63;;;3.00;;
49828;SDS011;35723;51.194;5.112;2023-05-16T07:08:43;14.32;;;2.50;;
49828;SDS011;35723;51.194;5.112;2023-05-16T07:11:08;15.50;;;2.55;;
49828;SDS011;35723;51.194;5.112;2023-05-16T07:13:35;15.02;;;2.35;;
49828;SDS011;35723;51.194;5.112;2023-05-16T07:16:01;14.88;;;2.47;;
49828;SDS011;35723;51.194;5.112;2023-05-16T07:18:27;15.88;;;2.33;;
49828;SDS011;35723;51.194;5.112;2023-05-16T07:20:53;16.02;;;2.25;;
49828;SDS011;35723;51.194;5.112;2023-05-16T07:23:19;14.00;;;2.10;;
49828;SDS011;35723;51.194;5.112;2023-05-16T07:25:44;16.48;;;2.22;;
49828;SDS011;35723;51.194;5.112;2023-05-16T07:28:10;11.98;;;1.88;;
49828;SDS011;35723;51.194;5.112;2023-05-16T07:30:36;16.60;;;2.00;;
49828;SDS011;35723;51.194;5.112;2023-05-16T07:33:01;13.32;;;2.05;;
49828;SDS011;35723;51.194;5.112;2023-05-16T07:35:27;12.38;;;2.00;;
49828;SDS011;35723;51.194;5.112;2023-05-16T07:37:53;16.90;;;2.55;;
49828;SDS011;35723;51.194;5.112;2023-05-16T07:40:18;14.20;;;2.42;;
49828;SDS011;35723;51.194;5.112;2023-05-16T07:42:49;13.18;;;2.38;;
49828;SDS011;35723;51.194;5.112;2023-05-16T07:45:15;15.35;;;2.50;;
49828;SDS011;35723;51.194;5.112;2023-05-16T07:47:41;14.27;;;2.35;;
49828;SDS011;35723;51.194;5.112;2023-05-16T07:50:07;10.90;;;1.80;;
49828;SDS011;35723;51.194;5.112;2023-05-16T07:52:33;10.82;;;2.13;;
49828;SDS011;35723;51.194;5.112;2023-05-16T07:54:58;16.25;;;2.38;;
49828;SDS011;35723;51.194;5.112;2023-05-16T07:57:24;15.73;;;2.28;;
49828;SDS011;35723;51.194;5.112;2023-05-16T07:59:50;13.90;;;2.40;;
49828;SDS011;35723;51.194;5.112;2023-05-16T08:02:16;10.02;;;2.10;;
49828;SDS011;35723;51.194;5.112;2023-05-16T08:04:42;17.10;;;2.30;;
49828;SDS011;35723;51.194;5.112;2023-05-16T08:07:07;10.32;;;2.00;;
49828;SDS011;35723;51.194;5.112;2023-05-16T08:09:33;10.30;;;1.95;;
49828;SDS011;35723;51.194;5.112;2023-05-16T08:11:59;14.52;;;2.22;;
49828;SDS011;35723;51.194;5.112;2023-05-16T08:14:28;15.02;;;1.95;;
49828;SDS011;35723;51.194;5.112;2023-05-16T08:16:56;11.77;;;1.80;;
49828;SDS011;35723;51.194;5.112;2023-05-16T08:19:25;8.35;;;1.50;;
49828;SDS011;35723;51.194;5.112;2023-05-16T08:21:51;14.13;;;1.58;;
49828;SDS011;35723;51.194;5.112;2023-05-16T08:24:17;11.02;;;2.00;;
49828;SDS011;35723;51.194;5.112;2023-05-16T08:26:42;11.23;;;2.33;;
49828;SDS011;35723;51.194;5.112;2023-05-16T08:29:08;13.73;;;1.73;;
49828;SDS011;35723;51.194;5.112;2023-05-16T08:31:34;11.80;;;1.77;;
49828;SDS011;35723;51.194;5.112;2023-05-16T08:33:59;9.85;;;2.00;;
49828;SDS011;35723;51.194;5.112;2023-05-16T08:36:30;12.82;;;2.30;;
49828;SDS011;35723;51.194;5.112;2023-05-16T08:38:58;9.90;;;1.85;;
49828;SDS011;35723;51.194;5.112;2023-05-16T08:41:24;9.55;;;1.70;;
49828;SDS011;35723;51.194;5.112;2023-05-16T08:43:50;9.60;;;1.77;;
49828;SDS011;35723;51.194;5.112;2023-05-16T08:46:17;6.88;;;1.40;;
49828;SDS011;35723;51.194;5.112;2023-05-16T08:48:46;9.98;;;1.83;;
49828;SDS011;35723;51.194;5.112;2023-05-16T08:51:13;8.73;;;1.85;;
49828;SDS011;35723;51.194;5.112;2023-05-16T08:53:44;9.90;;;1.63;;
49828;SDS011;35723;51.194;5.112;2023-05-16T08:56:13;16.73;;;2.03;;
49828;SDS011;35723;51.194;5.112;2023-05-16T08:58:41;8.70;;;1.60;;
49828;SDS011;35723;51.194;5.112;2023-05-16T09:01:07;12.20;;;1.67;;
49828;SDS011;35723;51.194;5.112;2023-05-16T09:03:36;8.90;;;1.70;;
49828;SDS011;35723;51.194;5.112;2023-05-16T09:06:06;11.75;;;2.00;;
49828;SDS011;35723;51.194;5.112;2023-05-16T09:08:32;9.40;;;1.50;;
49828;SDS011;35723;51.194;5.112;2023-05-16T09:10:58;12.82;;;1.58;;
49828;SDS011;35723;51.194;5.112;2023-05-16T09:13:25;13.93;;;1.83;;
49828;SDS011;35723;51.194;5.112;2023-05-16T09:18:39;13.15;;;1.70;;
49828;SDS011;35723;51.194;5.112;2023-05-16T09:21:08;13.65;;;1.80;;
49828;SDS011;35723;51.194;5.112;2023-05-16T09:23:35;12.93;;;2.10;;
49828;SDS011;35723;51.194;5.112;2023-05-16T09:26:02;13.15;;;2.40;;
49828;SDS011;35723;51.194;5.112;2023-05-16T09:28:29;11.02;;;1.92;;
49828;SDS011;35723;51.194;5.112;2023-05-16T09:30:55;10.57;;;1.75;;
49828;SDS011;35723;51.194;5.112;2023-05-16T09:33:25;9.95;;;1.55;;
49828;SDS011;35723;51.194;5.112;2023-05-16T09:38:23;7.82;;;1.50;;
49828;SDS011;35723;51.194;5.112;2023-05-16T09:40:49;8.30;;;1.60;;
49828;SDS011;35723;51.194;5.112;2023-05-16T09:43:16;12.15;;;2.05;;
49828;SDS011;35723;51.194;5.112;2023-05-16T09:45:44;8.20;;;1.67;;
49828;SDS011;35723;51.194;5.112;2023-05-16T09:48:11;10.27;;;1.73;;
49828;SDS011;35723;51.194;5.112;2023-05-16T09:50:39;10.00;;;1.50;;
49828;SDS011;35723;51.194;5.112;2023-05-16T09:53:11;11.93;;;1.83;;
49828;SDS011;35723;51.194;5.112;2023-05-16T09:55:37;8.48;;;1.50;;
49828;SDS011;35723;51.194;5.112;2023-05-16T09:58:03;7.18;;;1.58;;
49828;SDS011;35723;51.194;5.112;2023-05-16T10:00:30;7.43;;;1.33;;
49828;SDS011;35723;51.194;5.112;2023-05-16T10:02:57;4.85;;;1.40;;
49828;SDS011;35723;51.194;5.112;2023-05-16T10:05:27;10.00;;;1.75;;
49828;SDS011;35723;51.194;5.112;2023-05-16T10:07:56;7.32;;;1.50;;
49828;SDS011;35723;51.194;5.112;2023-05-16T10:10:23;10.00;;;1.45;;
49828;SDS011;35723;51.194;5.112;2023-05-16T10:12:50;6.32;;;1.10;;
49828;SDS011;35723;51.194;5.112;2023-05-16T10:15:17;6.90;;;1.20;;
49828;SDS011;35723;51.194;5.112;2023-05-16T10:17:44;13.32;;;1.92;;
49828;SDS011;35723;51.194;5.112;2023-05-16T10:20:16;7.65;;;1.25;;
49828;SDS011;35723;51.194;5.112;2023-05-16T10:22:44;15.05;;;1.48;;
49828;SDS011;35723;51.194;5.112;2023-05-16T10:27:44;4.22;;;0.95;;
49828;SDS011;35723;51.194;5.112;2023-05-16T10:30:11;7.20;;;1.52;;
49828;SDS011;35723;51.194;5.112;2023-05-16T10:32:38;7.80;;;1.33;;
49828;SDS011;35723;51.194;5.112;2023-05-16T10:35:04;8.75;;;1.33;;
49828;SDS011;35723;51.194;5.112;2023-05-16T10:37:30;7.65;;;1.35;;
49828;SDS011;35723;51.194;5.112;2023-05-16T10:40:00;8.02;;;1.50;;
49828;SDS011;35723;51.194;5.112;2023-05-16T10:42:30;6.13;;;1.10;;
49828;SDS011;35723;51.194;5.112;2023-05-16T10:45:07;5.53;;;1.23;;
49828;SDS011;35723;51.194;5.112;2023-05-16T10:47:53;8.77;;;1.48;;
49828;SDS011;35723;51.194;5.112;2023-05-16T10:56:05;5.30;;;1.42;;
49828;SDS011;35723;51.194;5.112;2023-05-16T11:04:05;9.55;;;1.67;;
49828;SDS011;35723;51.194;5.112;2023-05-16T11:14:36;9.57;;;1.60;;
49828;SDS011;35723;51.194;5.112;2023-05-16T11:19:28;6.78;;;1.30;;
49828;SDS011;35723;51.194;5.112;2023-05-16T11:27:35;5.50;;;1.58;;
49828;SDS011;35723;51.194;5.112;2023-05-16T11:30:12;5.22;;;1.35;;
49828;SDS011;35723;51.194;5.112;2023-05-16T11:32:42;10.25;;;1.70;;
49828;SDS011;35723;51.194;5.112;2023-05-16T11:35:10;8.70;;;1.55;;
49828;SDS011;35723;51.194;5.112;2023-05-16T11:37:37;10.88;;;2.05;;
49828;SDS011;35723;51.194;5.112;2023-05-16T11:40:06;10.07;;;1.50;;
49828;SDS011;35723;51.194;5.112;2023-05-16T11:42:51;10.20;;;1.80;;
49828;SDS011;35723;51.194;5.112;2023-05-16T11:45:18;11.20;;;1.80;;
49828;SDS011;35723;51.194;5.112;2023-05-16T11:47:46;10.40;;;1.98;;
49828;SDS011;35723;51.194;5.112;2023-05-16T11:50:13;8.98;;;1.70;;
49828;SDS011;35723;51.194;5.112;2023-05-16T11:52:44;7.10;;;1.77;;
49828;SDS011;35723;51.194;5.112;2023-05-16T11:55:12;5.15;;;1.55;;
49828;SDS011;35723;51.194;5.112;2023-05-16T11:57:40;6.28;;;1.48;;
49828;SDS011;35723;51.194;5.112;2023-05-16T12:00:18;6.05;;;1.55;;
49828;SDS011;35723;51.194;5.112;2023-05-16T12:02:45;8.10;;;1.67;;
49828;SDS011;35723;51.194;5.112;2023-05-16T12:05:12;7.90;;;1.60;;
49828;SDS011;35723;51.194;5.112;2023-05-16T12:07:39;8.75;;;1.85;;
49828;SDS011;35723;51.194;5.112;2023-05-16T12:10:06;9.63;;;1.80;;
49828;SDS011;35723;51.194;5.112;2023-05-16T12:12:33;9.27;;;1.98;;
49828;SDS011;35723;51.194;5.112;2023-05-16T12:15:00;6.28;;;1.63;;
49828;SDS011;35723;51.194;5.112;2023-05-16T12:17:27;7.15;;;1.60;;
49828;SDS011;35723;51.194;5.112;2023-05-16T12:19:53;11.88;;;1.80;;
49828;SDS011;35723;51.194;5.112;2023-05-16T12:22:19;6.82;;;1.80;;
49828;SDS011;35723;51.194;5.112;2023-05-16T12:24:45;6.65;;;1.70;;
49828;SDS011;35723;51.194;5.112;2023-05-16T12:27:11;8.18;;;1.67;;
49828;SDS011;35723;51.194;5.112;2023-05-16T12:29:37;7.63;;;1.70;;
49828;SDS011;35723;51.194;5.112;2023-05-16T12:32:03;8.13;;;1.75;;
49828;SDS011;35723;51.194;5.112;2023-05-16T12:34:31;8.13;;;1.67;;
49828;SDS011;35723;51.194;5.112;2023-05-16T12:36:57;7.50;;;1.85;;
49828;SDS011;35723;51.194;5.112;2023-05-16T12:39:25;6.75;;;1.83;;
49828;SDS011;35723;51.194;5.112;2023-05-16T12:41:50;7.82;;;1.67;;
49828;SDS011;35723;51.194;5.112;2023-05-16T12:44:17;12.10;;;1.83;;
49828;SDS011;35723;51.194;5.112;2023-05-16T12:46:49;7.38;;;1.88;;
49828;SDS011;35723;51.194;5.112;2023-05-16T12:49:21;7.65;;;1.90;;
49828;SDS011;35723;51.194;5.112;2023-05-16T12:51:51;11.15;;;1.70;;
49828;SDS011;35723;51.194;5.112;2023-05-16T12:54:17;6.40;;;1.67;;
49828;SDS011;35723;51.194;5.112;2023-05-16T12:56:44;8.20;;;2.00;;
49828;SDS011;35723;51.194;5.112;2023-05-16T12:59:10;7.97;;;1.77;;
49828;SDS011;35723;51.194;5.112;2023-05-16T13:01:38;8.23;;;1.80;;
49828;SDS011;35723;51.194;5.112;2023-05-16T13:04:06;9.88;;;1.80;;
49828;SDS011;35723;51.194;5.112;2023-05-16T13:06:32;8.90;;;2.22;;
49828;SDS011;35723;51.194;5.112;2023-05-16T13:08:58;5.13;;;1.55;;
49828;SDS011;35723;51.194;5.112;2023-05-16T13:11:24;6.47;;;1.70;;
49828;SDS011;35723;51.194;5.112;2023-05-16T13:13:50;8.23;;;1.83;;
49828;SDS011;35723;51.194;5.112;2023-05-16T13:16:16;8.52;;;1.50;;
49828;SDS011;35723;51.194;5.112;2023-05-16T13:18:42;9.20;;;1.90;;
49828;SDS011;35723;51.194;5.112;2023-05-16T13:21:08;10.70;;;1.83;;
49828;SDS011;35723;51.194;5.112;2023-05-16T13:23:33;10.75;;;1.70;;
49828;SDS011;35723;51.194;5.112;2023-05-16T13:25:59;9.82;;;1.60;;
49828;SDS011;35723;51.194;5.112;2023-05-16T13:28:25;8.70;;;1.75;;
49828;SDS011;35723;51.194;5.112;2023-05-16T13:30:50;8.20;;;1.42;;
49828;SDS011;35723;51.194;5.112;2023-05-16T13:33:16;7.45;;;1.42;;
49828;SDS011;35723;51.194;5.112;2023-05-16T13:35:42;14.52;;;2.08;;
49828;SDS011;35723;51.194;5.112;2023-05-16T13:38:08;8.40;;;1.70;;
49828;SDS011;35723;51.194;5.112;2023-05-16T13:40:34;6.75;;;1.48;;
49828;SDS011;35723;51.194;5.112;2023-05-16T13:43:00;9.15;;;1.67;;
49828;SDS011;35723;51.194;5.112;2023-05-16T13:45:29;8.05;;;1.55;;
49828;SDS011;35723;51.194;5.112;2023-05-16T13:47:55;6.20;;;1.40;;
49828;SDS011;35723;51.194;5.112;2023-05-16T13:50:21;11.68;;;1.85;;
49828;SDS011;35723;51.194;5.112;2023-05-16T13:52:47;7.63;;;1.50;;
49828;SDS011;35723;51.194;5.112;2023-05-16T13:55:12;9.60;;;1.40;;
49828;SDS011;35723;51.194;5.112;2023-05-16T13:57:38;5.38;;;1.50;;
49828;SDS011;35723;51.194;5.112;2023-05-16T14:00:04;12.05;;;2.47;;
49828;SDS011;35723;51.194;5.112;2023-05-16T14:02:39;10.13;;;2.10;;
49828;SDS011;35723;51.194;5.112;2023-05-16T14:05:06;13.48;;;2.00;;
49828;SDS011;35723;51.194;5.112;2023-05-16T14:07:32;12.27;;;1.65;;
49828;SDS011;35723;51.194;5.112;2023-05-16T14:09:57;8.73;;;1.88;;
49828;SDS011;35723;51.194;5.112;2023-05-16T14:12:23;9.60;;;1.65;;
49828;SDS011;35723;51.194;5.112;2023-05-16T14:14:49;4.90;;;1.48;;
49828;SDS011;35723;51.194;5.112;2023-05-16T14:17:14;5.72;;;1.38;;
49828;SDS011;35723;51.194;5.112;2023-05-16T14:19:43;6.35;;;1.52;;
49828;SDS011;35723;51.194;5.112;2023-05-16T14:22:09;5.25;;;1.35;;
49828;SDS011;35723;51.194;5.112;2023-05-16T14:24:35;6.93;;;1.60;;
49828;SDS011;35723;51.194;5.112;2023-05-16T14:27:00;9.52;;;1.85;;
49828;SDS011;35723;51.194;5.112;2023-05-16T14:29:27;8.52;;;1.70;;
49828;SDS011;35723;51.194;5.112;2023-05-16T14:31:52;10.90;;;2.10;;
49828;SDS011;35723;51.194;5.112;2023-05-16T14:34:18;7.35;;;1.70;;
49828;SDS011;35723;51.194;5.112;2023-05-16T14:36:44;10.85;;;1.80;;
49828;SDS011;35723;51.194;5.112;2023-05-16T14:39:10;5.32;;;1.77;;
49828;SDS011;35723;51.194;5.112;2023-05-16T14:41:36;8.40;;;1.80;;
49828;SDS011;35723;51.194;5.112;2023-05-16T14:44:01;11.88;;;2.25;;
49828;SDS011;35723;51.194;5.112;2023-05-16T14:46:27;11.05;;;2.28;;
49828;SDS011;35723;51.194;5.112;2023-05-16T14:48:53;6.63;;;1.80;;
49828;SDS011;35723;51.194;5.112;2023-05-16T14:51:18;9.38;;;1.90;;
49828;SDS011;35723;51.194;5.112;2023-05-16T14:53:44;10.95;;;2.45;;
49828;SDS011;35723;51.194;5.112;2023-05-16T14:56:11;13.50;;;2.50;;
49828;SDS011;35723;51.194;5.112;2023-05-16T14:58:36;9.40;;;2.10;;
49828;SDS011;35723;51.194;5.112;2023-05-16T15:01:02;6.35;;;2.00;;
49828;SDS011;35723;51.194;5.112;2023-05-16T15:03:28;9.85;;;1.90;;
49828;SDS011;35723;51.194;5.112;2023-05-16T15:05:55;6.97;;;1.80;;
49828;SDS011;35723;51.194;5.112;2023-05-16T15:08:21;6.32;;;1.35;;
49828;SDS011;35723;51.194;5.112;2023-05-16T15:10:47;10.57;;;2.05;;
49828;SDS011;35723;51.194;5.112;2023-05-16T15:13:12;8.43;;;1.55;;
49828;SDS011;35723;51.194;5.112;2023-05-16T15:15:38;10.73;;;1.45;;
49828;SDS011;35723;51.194;5.112;2023-05-16T15:18:04;9.75;;;1.75;;
49828;SDS011;35723;51.194;5.112;2023-05-16T15:20:30;9.98;;;1.83;;
49828;SDS011;35723;51.194;5.112;2023-05-16T15:22:57;9.27;;;1.88;;
49828;SDS011;35723;51.194;5.112;2023-05-16T15:25:22;9.25;;;1.70;;
49828;SDS011;35723;51.194;5.112;2023-05-16T15:27:48;7.72;;;1.48;;
49828;SDS011;35723;51.194;5.112;2023-05-16T15:30:13;10.32;;;1.70;;
49828;SDS011;35723;51.194;5.112;2023-05-16T15:32:39;11.68;;;1.80;;
49828;SDS011;35723;51.194;5.112;2023-05-16T15:35:05;8.27;;;1.58;;
49828;SDS011;35723;51.194;5.112;2023-05-16T15:37:31;10.02;;;2.10;;
49828;SDS011;35723;51.194;5.112;2023-05-16T15:39:57;12.50;;;1.63;;
49828;SDS011;35723;51.194;5.112;2023-05-16T15:42:22;8.90;;;1.73;;
49828;SDS011;35723;51.194;5.112;2023-05-16T15:44:48;9.65;;;1.75;;
49828;SDS011;35723;51.194;5.112;2023-05-16T15:47:14;8.02;;;1.83;;
49828;SDS011;35723;51.194;5.112;2023-05-16T15:49:39;11.15;;;1.92;;
49828;SDS011;35723;51.194;5.112;2023-05-16T15:52:05;7.82;;;1.60;;
49828;SDS011;35723;51.194;5.112;2023-05-16T15:54:31;9.65;;;1.70;;
49828;SDS011;35723;51.194;5.112;2023-05-16T15:56:57;10.10;;;2.00;;
49828;SDS011;35723;51.194;5.112;2023-05-16T15:59:22;8.90;;;1.58;;
49828;SDS011;35723;51.194;5.112;2023-05-16T16:01:48;13.85;;;1.70;;